HomeShort term forecast

Short term forecast

Graphical weather forecast for the next 48 hours for Montreal:
Short term forecast
This weather forecast is automatically refreshed every 3 hours.

Hourly Experimental Forecast for the next 48 hours ®

Overall summary: Mostly cloudy throughout the day and windy starting tomorrow morning, continuing until tomorrow evening.

 Date & Hour   Temp   Feel   Baro   Hum   Speed & Bearing   Precipitation   Visibility   Cloud cover   Conditions 
 20/01/2018 - 03:00  0.5°C  -4.6°C  1000.6 hPa  75%  20.6 km/h   0.12 mm/h  16.1km  91%  Mostly Cloudy 
 20/01/2018 - 04:00  1.2°C  -4.4°C  1000.1 hPa  76%  25.0 km/h   0.04 mm/h  16.1km  97%  Windy and Overcast 
 20/01/2018 - 05:00  1.2°C  -4.9°C  999.8 hPa  78%  30.0 km/h   0.03 mm/h  16.1km  100%  Windy and Overcast 
 20/01/2018 - 06:00  1.0°C  -5.6°C  999.6 hPa  80%  34.4 km/h   0.03 mm/h  16.1km  100%  Windy and Overcast 
 20/01/2018 - 07:00  0.8°C  -6.1°C  999.8 hPa  81%  37.4 km/h   0.03 mm/h  16.1km  100%  Windy and Overcast 
 20/01/2018 - 08:00  0.7°C  -6.2°C  1000.6 hPa  83%  37.8 km/h   0.02 mm/h  16.1km  94%  Windy and Overcast 
 20/01/2018 - 09:00  0.6°C  -6.3°C  1001.7 hPa  86%  36.8 km/h   0.02 mm/h  16.1km  86%  Windy and Mostly Cloudy 
 20/01/2018 - 10:00  0.6°C  -6.2°C  1002.6 hPa  88%  35.9 km/h   0.01 mm/h  16.1km  82%  Breezy and Mostly Cloudy 
 20/01/2018 - 11:00  0.8°C  -6.0°C  1002.9 hPa  89%  35.6 km/h   0.01 mm/h  16.1km  84%  Breezy and Mostly Cloudy 
 20/01/2018 - 12:00  1.2°C  -5.4°C  1002.9 hPa  90%  35.2 km/h   0.01 mm/h  16.1km  89%  Breezy and Mostly Cloudy 
 20/01/2018 - 13:00  1.6°C  -4.8°C  1003.1 hPa  91%  34.6 km/h   0.01 mm/h  16.1km  93%  Breezy and Mostly Cloudy 
 20/01/2018 - 14:00  2.0°C  -4.1°C  1003.8 hPa  90%  33.5 km/h   0.01 mm/h  16.1km  92%  Breezy and Mostly Cloudy 
 20/01/2018 - 15:00  2.4°C  -3.5°C  1004.8 hPa  89%  32.0 km/h   0.01 mm/h  16.1km  91%  Breezy and Mostly Cloudy 
 20/01/2018 - 16:00  2.8°C  -2.8°C  1005.9 hPa  86%  30.6 km/h   0.01 mm/h  16.1km  88%  Breezy and Mostly Cloudy 
 20/01/2018 - 17:00  3.2°C  -2.2°C  1007.0 hPa  85%  28.8 km/h   0.02 mm/h  16.1km  82%  Breezy and Mostly Cloudy 
 20/01/2018 - 18:00  3.3°C  -1.8°C  1008.2 hPa  85%  27.3 km/h   0.04 mm/h  16.1km  75%  Breezy and Mostly Cloudy 
 20/01/2018 - 19:00  3.0°C  -2.1°C  1009.4 hPa  85%  25.3 km/h   0.05 mm/h  16.1km  68%  Mostly Cloudy 
 20/01/2018 - 20:00  2.2°C  -2.8°C  1010.7 hPa  83%  22.1 km/h   0.04 mm/h  16.1km  64%  Mostly Cloudy 
 20/01/2018 - 21:00  1.1°C  -3.7°C  1012.1 hPa  81%  18.8 km/h   0.02 mm/h  16.1km  60%  Mostly Cloudy 
 20/01/2018 - 22:00  0.2°C  -4.3°C  1013.2 hPa  78%  15.7 km/h   0.01 mm/h  16.1km  58%  Partly Cloudy 
 20/01/2018 - 23:00  -0.7°C  -4.9°C  1014.2 hPa  77%  12.9 km/h   0.01 mm/h  16.1km  59%  Partly Cloudy 
 21/01/2018 - 00:00  -1.6°C  -5.3°C  1015.0 hPa  77%  10.5 km/h   0.01 mm/h  16.1km  60%  Mostly Cloudy 
 21/01/2018 - 01:00  -2.3°C  -5.6°C  1015.7 hPa  76%  8.5 km/h   0.01 mm/h  16.1km  63%  Mostly Cloudy 
 21/01/2018 - 02:00  -3.0°C  -5.9°C  1016.6 hPa  77%  7.2 km/h   0.02 mm/h  16.1km  64%  Mostly Cloudy 
 21/01/2018 - 03:00  -3.6°C  -6.2°C  1017.5 hPa  78%  6.3 km/h   0.03 mm/h  12.9km  67%  Mostly Cloudy 
 21/01/2018 - 04:00  -4.2°C  -6.6°C  1018.3 hPa  79%  5.7 km/h   0.04 mm/h  8.0km  70%  Mostly Cloudy 
 21/01/2018 - 05:00  -4.8°C  -7.1°C  1019.1 hPa  81%  5.1 km/h   0.04 mm/h  5.5km  78%  Mostly Cloudy 
 21/01/2018 - 06:00  -5.4°C  -5.4°C  1019.9 hPa  83%  4.8 km/h   0.04 mm/h  4.4km  87%  Mostly Cloudy 
 21/01/2018 - 07:00  -5.8°C  -8.0°C  1020.5 hPa  84%  4.8 km/h   0.04 mm/h  5.7km  93%  Mostly Cloudy 
 21/01/2018 - 08:00  -5.7°C  -8.0°C  1021.2 hPa  83%  4.9 km/h   0.03 mm/h  11.0km  89%  Mostly Cloudy 
 21/01/2018 - 09:00  -5.4°C  -7.7°C  1021.7 hPa  81%  5.1 km/h   0.03 mm/h  16.1km  82%  Mostly Cloudy 
 21/01/2018 - 10:00  -4.8°C  -4.8°C  1021.8 hPa  77%  4.6 km/h   0.03 mm/h  16.1km  77%  Mostly Cloudy 
 21/01/2018 - 11:00  -4.4°C  -6.9°C  1021.7 hPa  76%  5.6 km/h   0.04 mm/h  16.1km  82%  Mostly Cloudy 
 21/01/2018 - 12:00  -3.6°C  -6.6°C  1021.3 hPa  75%  6.9 km/h   0.04 mm/h  16.1km  91%  Mostly Cloudy 
 21/01/2018 - 13:00  -3.0°C  -6.4°C  1021.1 hPa  73%  8.4 km/h   0.04 mm/h  16.1km  97%  Overcast 
 21/01/2018 - 14:00  -2.6°C  -5.8°C  1021.0 hPa  72%  8.2 km/h   0.03 mm/h  16.1km  98%  Overcast 
 21/01/2018 - 15:00  -2.7°C  -5.6°C  1021.0 hPa  74%  7.2 km/h   0.02 mm/h  16.1km  97%  Overcast 
 21/01/2018 - 16:00  -3.1°C  -5.8°C  1021.2 hPa  77%  6.7 km/h   0.01 mm/h  16.1km  96%  Overcast 
 21/01/2018 - 17:00  -3.8°C  -6.5°C  1021.7 hPa  80%  6.3 km/h   0.01 mm/h  16.1km  97%  Overcast 
 21/01/2018 - 18:00  -4.2°C  -6.9°C  1022.5 hPa  82%  6.0 km/h   --  16.1km  99%  Overcast 
 21/01/2018 - 19:00  -4.6°C  -7.3°C  1023.1 hPa  83%  6.0 km/h   --  16.1km  100%  Overcast 
 21/01/2018 - 20:00  -4.5°C  -7.4°C  1023.6 hPa  83%  6.5 km/h   0.01 mm/h  16.1km  100%  Overcast 
 21/01/2018 - 21:00  -4.3°C  -7.5°C  1024.0 hPa  82%  7.3 km/h   0.06 mm/h  7.1km  100%  Overcast 
 21/01/2018 - 22:00  -4.2°C  -7.8°C  1024.4 hPa  82%  8.4 km/h   0.10 mm/h  0.3km  100%  Foggy 
 21/01/2018 - 23:00  -4.3°C  -8.3°C  1024.9 hPa  81%  9.7 km/h   0.09 mm/h  0.4km  100%  Foggy 
 22/01/2018 - 00:00  -4.6°C  -9.2°C  1025.4 hPa  81%  11.1 km/h   0.07 mm/h  3.7km  100%  Overcast 
 22/01/2018 - 01:00  -5.2°C  -10.3°C  1026.0 hPa  80%  12.8 km/h   0.06 mm/h  8.1km  100%  Overcast 
 22/01/2018 - 02:00  -6.3°C  -12.2°C  1026.4 hPa  78%  15.0 km/h   0.06 mm/h  13.5km  100%  Overcast 
Test

 

Past weather and reports

Past weatherFind in this section the past weather conditions, weather archive, graphics, reports and statistics.

Current conditions

Current weather condition for MontrealAll you need to know about the current weather conditions for Montreal. Weather data is updated every 10 minutes.

Weather forecast

Current Montreal weatherSince 2004, celinium.com website has provided accurate weather forecast for Montreal's island.